Time;durP1;ratioP1;P1;durP2;ratioP2;P2;SDS_P1;SDS_P2;PMS_P1;PMS_P2;Temp;Humidity;BMP_temperature;BMP_pressure;BME280_temperature;BME280_humidity;BME280_pressure;Samples;Min_cycle;Max_cycle;Signal;HPM_P1;HPM_P2
2022/01/06 00:00:46;;;;;;;16.05;6.93;;;;;;;;;;6298884;28;20032;-89
2022/01/06 00:03:47;;;;;;;7.50;3.88;;;;;;;;;;6299350;28;20035;-89
2022/01/06 00:06:47;;;;;;;12.05;6.18;;;;;;;;;;6298799;28;20057;-89
2022/01/06 00:09:49;;;;;;;5.38;3.03;;;;;;;;;;6294632;28;20032;-89
2022/01/06 00:13:14;;;;;;;9.38;4.97;;;;;;;;;;6253078;28;20028;-89
2022/01/06 00:16:17;;;;;;;15.18;5.45;;;;;;;;;;6249476;28;20060;-89
2022/01/06 00:25:57;;;;;;;19.70;7.57;;;;;;;;;;6260640;28;20021;-89
2022/01/06 00:28:57;;;;;;;10.93;5.32;;;;;;;;;;6248160;28;20021;-89
2022/01/06 00:31:58;;;;;;;17.98;7.53;;;;;;;;;;6248760;28;20500;-89
2022/01/06 00:34:58;;;;;;;20.95;8.63;;;;;;;;;;6249389;28;20049;-89
2022/01/06 00:37:58;;;;;;;22.05;7.95;;;;;;;;;;6247435;28;20054;-89
2022/01/06 00:40:59;;;;;;;14.60;7.28;;;;;;;;;;6248778;28;20079;-89
2022/01/06 00:43:59;;;;;;;23.70;8.77;;;;;;;;;;6250658;28;20018;-89
2022/01/06 00:46:59;;;;;;;22.63;8.10;;;;;;;;;;6252495;28;20061;-89
2022/01/06 00:49:59;;;;;;;9.30;4.15;;;;;;;;;;6248195;28;20109;-89
2022/01/06 00:53:03;;;;;;;17.58;8.90;;;;;;;;;;6248920;28;20013;-89
2022/01/06 00:56:04;;;;;;;16.73;5.35;;;;;;;;;;6255714;28;20020;-89
2022/01/06 00:59:04;;;;;;;13.68;6.95;;;;;;;;;;6297524;28;20028;-89
2022/01/06 01:02:04;;;;;;;16.08;5.97;;;;;;;;;;6298471;28;20131;-89
2022/01/06 01:05:05;;;;;;;13.90;6.05;;;;;;;;;;6290902;28;20013;-89
2022/01/06 01:08:05;;;;;;;14.93;5.43;;;;;;;;;;6271195;28;20512;-89
2022/01/06 01:11:05;;;;;;;9.20;5.43;;;;;;;;;;6259576;28;20125;-89
2022/01/06 01:14:25;;;;;;;13.80;5.10;;;;;;;;;;6249613;28;20025;-89
2022/01/06 01:17:27;;;;;;;12.40;5.88;;;;;;;;;;6272335;28;20025;-89
2022/01/06 01:20:27;;;;;;;14.73;6.30;;;;;;;;;;6273686;28;20516;-89
2022/01/06 01:23:27;;;;;;;20.10;7.07;;;;;;;;;;6268671;28;20039;-89
2022/01/06 01:26:28;;;;;;;9.93;4.85;;;;;;;;;;6271924;28;20032;-89
2022/01/06 01:29:30;;;;;;;10.80;3.83;;;;;;;;;;6271239;28;20035;-89
2022/01/06 01:32:34;;;;;;;14.55;5.35;;;;;;;;;;6271735;28;20033;-89
2022/01/06 01:35:35;;;;;;;17.80;5.60;;;;;;;;;;6272527;28;20036;-89
2022/01/06 01:38:37;;;;;;;9.63;3.28;;;;;;;;;;6258172;28;20053;-89
2022/01/06 01:41:37;;;;;;;16.38;6.47;;;;;;;;;;6246080;28;20496;-89
2022/01/06 01:44:38;;;;;;;3.67;2.35;;;;;;;;;;6252550;28;20055;-89
2022/01/06 01:47:43;;;;;;;12.80;4.68;;;;;;;;;;6246498;28;20063;-89
2022/01/06 01:50:43;;;;;;;9.57;4.05;;;;;;;;;;6246809;28;20404;-89
2022/01/06 01:53:44;;;;;;;9.50;4.85;;;;;;;;;;6264076;28;20381;-89
2022/01/06 01:56:44;;;;;;;19.25;5.88;;;;;;;;;;6271271;28;20099;-89
2022/01/06 01:59:45;;;;;;;9.18;5.15;;;;;;;;;;6268555;28;20032;-89
2022/01/06 02:02:45;;;;;;;17.00;6.25;;;;;;;;;;6264984;28;20032;-89
2022/01/06 02:05:45;;;;;;;18.60;5.75;;;;;;;;;;6263903;28;20365;-89
2022/01/06 02:08:46;;;;;;;12.48;5.65;;;;;;;;;;6270708;28;20021;-89
2022/01/06 02:11:46;;;;;;;12.10;4.72;;;;;;;;;;6252337;28;20044;-89
2022/01/06 02:14:47;;;;;;;12.75;5.95;;;;;;;;;;6260289;28;20096;-89
2022/01/06 02:17:47;;;;;;;12.52;6.05;;;;;;;;;;6271838;28;20362;-89
2022/01/06 02:20:48;;;;;;;11.75;5.93;;;;;;;;;;6270363;28;20117;-89
2022/01/06 02:23:48;;;;;;;6.80;3.83;;;;;;;;;;6255503;28;20116;-89
2022/01/06 02:26:48;;;;;;;9.90;3.20;;;;;;;;;;6255909;28;20025;-89
2022/01/06 02:29:49;;;;;;;16.48;4.90;;;;;;;;;;6270885;28;20388;-89
2022/01/06 02:32:50;;;;;;;10.60;4.50;;;;;;;;;;6270482;28;20051;-89
2022/01/06 02:35:50;;;;;;;11.63;4.38;;;;;;;;;;6270004;28;20035;-89
2022/01/06 02:38:51;;;;;;;18.02;5.10;;;;;;;;;;6254356;28;20049;-89
2022/01/06 02:41:51;;;;;;;8.88;4.25;;;;;;;;;;6245307;28;20021;-89
2022/01/06 02:44:51;;;;;;;8.10;4.28;;;;;;;;;;6244988;28;20575;-89
2022/01/06 02:47:52;;;;;;;12.23;3.47;;;;;;;;;;6244949;28;20018;-89
2022/01/06 02:50:52;;;;;;;8.93;4.32;;;;;;;;;;6245029;28;20454;-89
2022/01/06 02:53:53;;;;;;;9.40;3.38;;;;;;;;;;6244774;28;20029;-89
2022/01/06 02:56:53;;;;;;;5.95;4.78;;;;;;;;;;6255314;28;20048;-89
2022/01/06 02:59:53;;;;;;;13.02;4.68;;;;;;;;;;6270809;28;20025;-88
2022/01/06 03:02:54;;;;;;;7.45;4.22;;;;;;;;;;6270607;28;20330;-89
2022/01/06 03:05:54;;;;;;;15.13;4.88;;;;;;;;;;6245659;28;20529;-89
2022/01/06 03:08:54;;;;;;;10.00;4.88;;;;;;;;;;6244748;28;20017;-90
2022/01/06 03:11:55;;;;;;;7.85;3.53;;;;;;;;;;6246487;28;20420;-89
2022/01/06 03:14:55;;;;;;;5.00;3.17;;;;;;;;;;6244971;28;20039;-89
2022/01/06 03:17:57;;;;;;;12.23;4.03;;;;;;;;;;6244797;28;20021;-89
2022/01/06 03:20:57;;;;;;;13.20;3.95;;;;;;;;;;6248758;28;20017;-89
2022/01/06 03:23:58;;;;;;;8.50;5.47;;;;;;;;;;6266896;28;20028;-89
2022/01/06 03:26:58;;;;;;;7.57;3.50;;;;;;;;;;6259492;28;20462;-89
2022/01/06 03:29:58;;;;;;;10.50;4.30;;;;;;;;;;6268418;28;20020;-89
2022/01/06 03:32:59;;;;;;;7.63;2.97;;;;;;;;;;6270798;28;20400;-89
2022/01/06 03:35:59;;;;;;;11.75;3.42;;;;;;;;;;6248310;28;20060;-89
2022/01/06 03:38:59;;;;;;;9.07;3.35;;;;;;;;;;6243477;28;20049;-89
2022/01/06 03:42:00;;;;;;;2.67;2.08;;;;;;;;;;6244353;28;20102;-89
2022/01/06 03:45:00;;;;;;;10.10;4.25;;;;;;;;;;6244321;28;20029;-89
2022/01/06 03:48:01;;;;;;;7.10;3.35;;;;;;;;;;6244278;28;20035;-89
2022/01/06 03:51:02;;;;;;;5.78;3.55;;;;;;;;;;6244416;28;20057;-89
2022/01/06 03:54:02;;;;;;;12.25;4.10;;;;;;;;;;6244279;28;20026;-89
2022/01/06 03:57:03;;;;;;;9.13;3.75;;;;;;;;;;6249196;28;20060;-89
2022/01/06 04:00:08;;;;;;;9.70;3.17;;;;;;;;;;6267621;28;20056;-89
2022/01/06 04:03:08;;;;;;;8.30;4.10;;;;;;;;;;6254814;28;20031;-89
2022/01/06 04:06:10;;;;;;;6.07;3.58;;;;;;;;;;6243833;28;20033;-89
2022/01/06 04:09:10;;;;;;;8.90;5.25;;;;;;;;;;6246768;28;20029;-89
2022/01/06 04:12:11;;;;;;;3.08;1.92;;;;;;;;;;6255422;28;20417;-90
2022/01/06 04:15:13;;;;;;;7.15;4.05;;;;;;;;;;6249255;28;20053;-89
2022/01/06 04:18:13;;;;;;;;;;;;;;;;;;6262545;28;20483;-89
2022/01/06 04:21:13;;;;;;;13.02;4.47;;;;;;;;;;6272876;28;19905;-89
2022/01/06 04:24:14;;;;;;;6.25;3.42;;;;;;;;;;6270603;28;20471;-89
2022/01/06 04:27:14;;;;;;;7.28;3.22;;;;;;;;;;6263263;28;20071;-89
2022/01/06 04:30:14;;;;;;;8.52;4.60;;;;;;;;;;6272243;28;20056;-89
2022/01/06 04:33:14;;;;;;;14.38;4.97;;;;;;;;;;6274092;28;20036;-89
2022/01/06 04:36:15;;;;;;;6.75;3.55;;;;;;;;;;6273035;28;20031;-89
2022/01/06 04:39:15;;;;;;;12.80;4.35;;;;;;;;;;6247667;28;20092;-89
2022/01/06 04:42:16;;;;;;;16.48;4.53;;;;;;;;;;6247455;28;20030;-89
2022/01/06 04:45:16;;;;;;;9.93;5.72;;;;;;;;;;6253776;28;20051;-89
2022/01/06 04:48:16;;;;;;;18.13;5.65;;;;;;;;;;6247580;28;20455;-89
2022/01/06 04:51:16;;;;;;;11.55;5.10;;;;;;;;;;6248080;28;20025;-89
2022/01/06 04:54:17;;;;;;;16.10;5.78;;;;;;;;;;6247807;28;20388;-89
2022/01/06 04:57:17;;;;;;;13.15;5.35;;;;;;;;;;6253531;28;20083;-89
2022/01/06 05:00:17;;;;;;;7.55;4.13;;;;;;;;;;6247770;28;20025;-89
2022/01/06 05:03:18;;;;;;;10.65;4.45;;;;;;;;;;6246877;28;20548;-89
2022/01/06 05:06:18;;;;;;;12.93;4.80;;;;;;;;;;6247387;28;20497;-89
2022/01/06 05:09:18;;;;;;;10.55;5.15;;;;;;;;;;6247388;28;20481;-89
2022/01/06 05:12:19;;;;;;;12.75;4.63;;;;;;;;;;6255722;28;20026;-89
2022/01/06 05:15:19;;;;;;;9.57;3.90;;;;;;;;;;6248532;28;20035;-89
2022/01/06 05:18:19;;;;;;;9.88;4.70;;;;;;;;;;6265204;28;20037;-89
2022/01/06 05:21:19;;;;;;;14.15;5.10;;;;;;;;;;6270662;28;20056;-89
2022/01/06 05:24:23;;;;;;;16.67;6.53;;;;;;;;;;6269242;28;20397;-89
2022/01/06 05:27:23;;;;;;;15.48;7.00;;;;;;;;;;6272069;28;20024;-89
2022/01/06 05:30:23;;;;;;;15.60;6.50;;;;;;;;;;6273607;28;20342;-89
2022/01/06 05:33:24;;;;;;;27.13;12.63;;;;;;;;;;6270975;28;20287;-88
2022/01/06 05:36:25;;;;;;;28.77;14.32;;;;;;;;;;6272110;28;20029;-89
2022/01/06 05:39:25;;;;;;;22.73;10.63;;;;;;;;;;6252279;28;20057;-88
2022/01/06 05:42:25;;;;;;;18.60;10.85;;;;;;;;;;6259104;28;20417;-89
2022/01/06 05:45:26;;;;;;;17.75;9.27;;;;;;;;;;6253156;28;20118;-89
2022/01/06 05:48:27;;;;;;;12.68;5.20;;;;;;;;;;6260333;28;20040;-89
2022/01/06 05:51:27;;;;;;;17.13;5.05;;;;;;;;;;6269085;28;20012;-89
2022/01/06 05:54:27;;;;;;;11.57;5.57;;;;;;;;;;6246899;28;20030;-89
2022/01/06 05:57:28;;;;;;;8.93;3.83;;;;;;;;;;6262079;28;20504;-89
2022/01/06 06:00:28;;;;;;;10.95;4.10;;;;;;;;;;6263310;28;20025;-88
2022/01/06 06:03:28;;;;;;;11.60;4.80;;;;;;;;;;6254339;28;20025;-89
2022/01/06 06:06:29;;;;;;;7.93;4.65;;;;;;;;;;6247625;28;20100;-89
2022/01/06 06:09:29;;;;;;;12.70;5.65;;;;;;;;;;6257610;28;20029;-89
2022/01/06 06:12:29;;;;;;;12.77;5.60;;;;;;;;;;6246637;28;20022;-89
2022/01/06 06:15:34;;;;;;;11.00;4.47;;;;;;;;;;6256336;28;20080;-89
2022/01/06 06:18:34;;;;;;;14.07;5.60;;;;;;;;;;6254264;28;20031;-89
2022/01/06 06:21:34;;;;;;;14.43;6.63;;;;;;;;;;6259676;28;20029;-89
2022/01/06 06:24:35;;;;;;;9.15;5.32;;;;;;;;;;6256614;28;20055;-89
2022/01/06 06:27:35;;;;;;;13.80;6.78;;;;;;;;;;6261923;28;20078;-89
2022/01/06 06:30:35;;;;;;;23.20;5.18;;;;;;;;;;6270043;28;20361;-88
2022/01/06 06:33:36;;;;;;;12.38;5.65;;;;;;;;;;6269519;28;20115;-88
2022/01/06 06:36:37;;;;;;;10.50;5.47;;;;;;;;;;6268766;28;20017;-88
2022/01/06 06:39:37;;;;;;;18.67;5.68;;;;;;;;;;6246478;28;20572;-89
2022/01/06 06:42:37;;;;;;;19.77;7.13;;;;;;;;;;6245387;28;20029;-88
2022/01/06 06:45:38;;;;;;;18.40;7.80;;;;;;;;;;6247828;28;20492;-88
2022/01/06 06:48:38;;;;;;;19.30;7.95;;;;;;;;;;6245197;28;20151;-89
2022/01/06 06:51:38;;;;;;;10.63;5.70;;;;;;;;;;6244930;28;20049;-88
2022/01/06 06:54:39;;;;;;;17.52;8.35;;;;;;;;;;6248031;28;20519;-88
2022/01/06 06:57:40;;;;;;;24.17;9.57;;;;;;;;;;6262500;28;20430;-88
2022/01/06 07:00:40;;;;;;;12.68;5.40;;;;;;;;;;6269652;28;20020;-89
2022/01/06 07:03:40;;;;;;;11.20;5.88;;;;;;;;;;6269723;28;20036;-88
2022/01/06 07:06:41;;;;;;;11.82;5.50;;;;;;;;;;6269344;28;20438;-88
2022/01/06 07:09:41;;;;;;;13.65;5.30;;;;;;;;;;6268027;28;20676;-88
2022/01/06 07:12:42;;;;;;;17.45;5.60;;;;;;;;;;6252438;28;20028;-89
2022/01/06 07:15:43;;;;;;;19.17;5.03;;;;;;;;;;6245869;28;20021;-89
2022/01/06 07:18:43;;;;;;;23.63;8.35;;;;;;;;;;6243993;28;20021;-88
2022/01/06 07:21:43;;;;;;;19.88;7.93;;;;;;;;;;6246622;28;20017;-88
2022/01/06 07:24:44;;;;;;;10.20;4.50;;;;;;;;;;6244752;28;20021;-88
2022/01/06 07:27:44;;;;;;;16.35;6.80;;;;;;;;;;6248960;28;20436;-88
2022/01/06 07:30:44;;;;;;;11.38;6.03;;;;;;;;;;6244055;28;20064;-88
2022/01/06 07:33:45;;;;;;;14.32;5.88;;;;;;;;;;6244728;28;20025;-89
2022/01/06 07:36:45;;;;;;;17.00;7.30;;;;;;;;;;6243837;28;20370;-88
2022/01/06 07:39:45;;;;;;;17.13;9.13;;;;;;;;;;6250408;28;20123;-88
2022/01/06 07:42:46;;;;;;;14.75;8.02;;;;;;;;;;6270278;28;20024;-88
2022/01/06 07:45:46;;;;;;;10.32;6.25;;;;;;;;;;6259121;28;20017;-88
2022/01/06 07:49:05;;;;;;;17.17;8.40;;;;;;;;;;6253383;28;20025;-88
2022/01/06 07:52:05;;;;;;;15.63;6.78;;;;;;;;;;6253504;28;20079;-88
2022/01/06 07:55:05;;;;;;;16.05;5.18;;;;;;;;;;6265356;28;20024;-88
2022/01/06 07:58:06;;;;;;;12.55;5.80;;;;;;;;;;6255766;28;20013;-88
2022/01/06 08:01:06;;;;;;;15.60;6.78;;;;;;;;;;6258402;28;20771;-88
2022/01/06 08:04:06;;;;;;;10.32;4.05;;;;;;;;;;6252608;28;20068;-88
2022/01/06 08:07:07;;;;;;;7.68;4.43;;;;;;;;;;6255820;28;20611;-88
2022/01/06 08:10:08;;;;;;;20.42;10.05;;;;;;;;;;6255785;28;20017;-88
2022/01/06 08:13:08;;;;;;;17.50;9.13;;;;;;;;;;6249422;28;20548;-88
2022/01/06 08:16:09;;;;;;;12.00;6.40;;;;;;;;;;6248608;28;20020;-88
2022/01/06 08:19:09;;;;;;;13.10;5.10;;;;;;;;;;6253657;28;20392;-88
2022/01/06 08:22:10;;;;;;;12.98;6.45;;;;;;;;;;6257231;28;20029;-88
2022/01/06 08:25:10;;;;;;;10.65;5.55;;;;;;;;;;6264570;28;20024;-88
2022/01/06 08:28:10;;;;;;;9.18;3.85;;;;;;;;;;6255950;28;20018;-88
2022/01/06 08:31:13;;;;;;;17.45;7.22;;;;;;;;;;6250282;28;20029;-88
2022/01/06 08:34:13;;;;;;;13.10;7.15;;;;;;;;;;6258522;28;20096;-88
2022/01/06 08:37:13;;;;;;;12.23;7.53;;;;;;;;;;6263669;28;20028;-88
2022/01/06 08:40:14;;;;;;;19.20;7.00;;;;;;;;;;6251490;28;20017;-88
2022/01/06 08:43:14;;;;;;;11.85;6.03;;;;;;;;;;6247878;28;20017;-88
2022/01/06 08:46:14;;;;;;;16.23;7.85;;;;;;;;;;6247386;28;20024;-88
2022/01/06 08:49:15;;;;;;;21.58;9.30;;;;;;;;;;6254101;28;20496;-88
2022/01/06 08:52:15;;;;;;;17.17;8.18;;;;;;;;;;6256171;28;20017;-88
2022/01/06 08:55:16;;;;;;;16.35;6.57;;;;;;;;;;6260840;28;20079;-88
2022/01/06 08:58:16;;;;;;;14.93;7.78;;;;;;;;;;6255015;28;20029;-88
2022/01/06 09:01:16;;;;;;;12.13;6.80;;;;;;;;;;6247290;28;20031;-88
2022/01/06 09:04:20;;;;;;;13.77;6.80;;;;;;;;;;6244785;28;20032;-88
2022/01/06 09:07:20;;;;;;;18.75;10.82;;;;;;;;;;6247530;28;20025;-88
2022/01/06 09:10:23;;;;;;;12.25;6.03;;;;;;;;;;6247056;28;20045;-88
2022/01/06 09:13:23;;;;;;;5.57;3.67;;;;;;;;;;6249822;28;20499;-88
2022/01/06 09:16:24;;;;;;;8.40;4.50;;;;;;;;;;6281184;28;20020;-88
2022/01/06 09:19:24;;;;;;;8.85;4.30;;;;;;;;;;6270923;28;20031;-88
2022/01/06 09:22:24;;;;;;;6.85;3.90;;;;;;;;;;6255633;28;20036;-88
2022/01/06 09:25:25;;;;;;;8.55;5.13;;;;;;;;;;6254908;28;20085;-88
2022/01/06 09:28:26;;;;;;;9.38;5.10;;;;;;;;;;6260891;28;20691;-88
2022/01/06 09:31:26;;;;;;;6.55;4.18;;;;;;;;;;6248342;28;20021;-88
2022/01/06 09:34:26;;;;;;;18.95;7.97;;;;;;;;;;6246597;28;20032;-89
2022/01/06 09:37:26;;;;;;;10.55;5.85;;;;;;;;;;6253214;28;20129;-88
2022/01/06 09:40:27;;;;;;;11.43;5.82;;;;;;;;;;6253122;28;20099;-88
2022/01/06 09:43:27;;;;;;;10.25;4.90;;;;;;;;;;6255671;28;20082;-88
2022/01/06 09:46:28;;;;;;;28.52;14.45;;;;;;;;;;6253902;28;20489;-89
2022/01/06 09:49:29;;;;;;;75.43;31.65;;;;;;;;;;6247910;28;20002;-88
2022/01/06 09:52:29;;;;;;;13.43;5.57;;;;;;;;;;6256180;28;20362;-88
2022/01/06 09:55:29;;;;;;;26.10;12.93;;;;;;;;;;6248226;28;20040;-88
2022/01/06 09:58:30;;;;;;;13.90;6.82;;;;;;;;;;6257143;28;20074;-88
2022/01/06 10:01:30;;;;;;;7.65;4.45;;;;;;;;;;6257087;28;20090;-88
2022/01/06 10:04:30;;;;;;;10.30;4.43;;;;;;;;;;6257514;28;20032;-88
2022/01/06 10:07:49;;;;;;;7.68;4.82;;;;;;;;;;6259406;28;20431;-88
2022/01/06 10:10:49;;;;;;;21.15;11.55;;;;;;;;;;6254763;28;20013;-88
2022/01/06 10:14:30;;;;;;;18.98;8.52;;;;;;;;;;6251586;28;20261;-88
2022/01/06 10:17:33;;;;;;;10.93;5.70;;;;;;;;;;6237835;28;20037;-88
2022/01/06 10:20:34;;;;;;;11.60;7.40;;;;;;;;;;6257831;28;20100;-88
2022/01/06 10:23:34;;;;;;;17.30;9.65;;;;;;;;;;6258753;28;20023;-88
2022/01/06 10:26:35;;;;;;;8.13;4.82;;;;;;;;;;6254976;28;20028;-88
2022/01/06 10:29:38;;;;;;;16.77;8.68;;;;;;;;;;6264155;28;20718;-88
2022/01/06 10:32:39;;;;;;;12.02;5.32;;;;;;;;;;6259028;28;20028;-88
2022/01/06 10:35:40;;;;;;;14.45;6.43;;;;;;;;;;6253992;28;20029;-88
2022/01/06 10:38:40;;;;;;;13.63;6.40;;;;;;;;;;6268947;28;20049;-89
2022/01/06 10:41:40;;;;;;;7.65;4.25;;;;;;;;;;6263804;28;20037;-88
2022/01/06 10:44:48;;;;;;;9.15;3.88;;;;;;;;;;6248064;28;20071;-89
2022/01/06 10:47:51;;;;;;;14.80;5.95;;;;;;;;;;6252586;28;20047;-89
2022/01/06 10:50:56;;;;;;;17.90;9.15;;;;;;;;;;6259867;28;20029;-88
2022/01/06 10:53:56;;;;;;;21.05;8.60;;;;;;;;;;6252824;28;20049;-89
2022/01/06 10:56:56;;;;;;;8.57;5.13;;;;;;;;;;6251763;28;20027;-88
2022/01/06 10:59:57;;;;;;;6.97;3.55;;;;;;;;;;6248152;28;20026;-88
2022/01/06 11:03:11;;;;;;;7.53;4.45;;;;;;;;;;6245259;28;20029;-88
2022/01/06 11:06:12;;;;;;;13.35;6.68;;;;;;;;;;6257950;28;20025;-88
2022/01/06 11:09:12;;;;;;;22.80;9.02;;;;;;;;;;6244921;28;20777;-88
2022/01/06 11:12:26;;;;;;;24.10;6.90;;;;;;;;;;6250254;28;20040;-88
2022/01/06 11:15:27;;;;;;;14.43;6.10;;;;;;;;;;6245755;28;20021;-88
2022/01/06 11:18:28;;;;;;;6.10;3.47;;;;;;;;;;6261218;28;20419;-88
2022/01/06 11:21:37;;;;;;;23.48;7.50;;;;;;;;;;6254134;28;20033;-88
2022/01/06 11:24:38;;;;;;;17.05;4.28;;;;;;;;;;6266847;28;20047;-88
2022/01/06 11:27:39;;;;;;;7.47;2.88;;;;;;;;;;6256299;28;20036;-88
2022/01/06 11:30:47;;;;;;;11.75;4.75;;;;;;;;;;6246939;28;20029;-88
2022/01/06 11:33:48;;;;;;;8.90;3.92;;;;;;;;;;6247187;28;20111;-88
2022/01/06 11:36:54;;;;;;;11.03;4.73;;;;;;;;;;6253581;28;20025;-88
2022/01/06 11:40:01;;;;;;;6.88;3.70;;;;;;;;;;6253421;28;20301;-88
2022/01/06 11:43:02;;;;;;;7.13;3.22;;;;;;;;;;6255022;28;20032;-88
2022/01/06 11:46:02;;;;;;;12.13;6.72;;;;;;;;;;6253227;28;20013;-88
2022/01/06 11:49:02;;;;;;;6.70;3.22;;;;;;;;;;6257287;28;20575;-88
2022/01/06 11:52:16;;;;;;;9.90;5.03;;;;;;;;;;6244948;28;20022;-89
2022/01/06 11:55:17;;;;;;;12.40;4.70;;;;;;;;;;6255022;28;20009;-88
2022/01/06 11:58:21;;;;;;;6.30;3.15;;;;;;;;;;6244609;28;20041;-89
2022/01/06 12:01:21;;;;;;;9.48;3.13;;;;;;;;;;6246505;28;20032;-88
2022/01/06 12:04:22;;;;;;;16.33;7.10;;;;;;;;;;6268569;28;20044;-89
2022/01/06 12:07:23;;;;;;;5.30;2.83;;;;;;;;;;6269930;28;20075;-88
2022/01/06 12:10:23;;;;;;;13.73;6.50;;;;;;;;;;6258005;28;20052;-88
2022/01/06 12:13:24;;;;;;;4.95;2.65;;;;;;;;;;6266999;28;20028;-89
2022/01/06 12:16:24;;;;;;;4.82;2.70;;;;;;;;;;6247747;28;20017;-89
2022/01/06 12:19:25;;;;;;;15.55;3.15;;;;;;;;;;6246038;28;20112;-88
2022/01/06 12:22:27;;;;;;;13.75;6.00;;;;;;;;;;6246402;28;20024;-88
2022/01/06 12:25:27;;;;;;;14.98;9.18;;;;;;;;;;6252383;28;20108;-88
2022/01/06 12:28:28;;;;;;;12.07;6.10;;;;;;;;;;6264388;28;20044;-88
2022/01/06 12:31:29;;;;;;;8.50;4.73;;;;;;;;;;6248273;28;20090;-88
2022/01/06 12:34:30;;;;;;;4.40;2.22;;;;;;;;;;6257856;28;20477;-89
2022/01/06 12:37:30;;;;;;;8.27;2.65;;;;;;;;;;6262705;28;20037;-89
2022/01/06 12:40:41;;;;;;;13.23;7.38;;;;;;;;;;6251642;28;20032;-88
2022/01/06 12:43:42;;;;;;;4.60;2.45;;;;;;;;;;6256523;28;20022;-88
2022/01/06 12:46:43;;;;;;;5.45;2.50;;;;;;;;;;6256262;28;20021;-88
2022/01/06 12:49:43;;;;;;;5.25;2.53;;;;;;;;;;6260673;28;20516;-88
2022/01/06 12:52:47;;;;;;;6.00;2.03;;;;;;;;;;6259469;28;20052;-88
2022/01/06 12:55:47;;;;;;;5.68;2.75;;;;;;;;;;6250399;28;20083;-89
2022/01/06 12:58:47;;;;;;;7.50;3.30;;;;;;;;;;6251626;28;20025;-89
2022/01/06 13:01:51;;;;;;;4.57;2.75;;;;;;;;;;6261515;28;20663;-88
2022/01/06 13:04:51;;;;;;;9.30;4.15;;;;;;;;;;6256194;28;20021;-88
2022/01/06 13:08:00;;;;;;;7.70;4.05;;;;;;;;;;6257814;28;20117;-88
2022/01/06 13:11:04;;;;;;;5.50;2.70;;;;;;;;;;6262328;28;20028;-88
2022/01/06 13:14:06;;;;;;;8.32;3.58;;;;;;;;;;6266226;28;20029;-88
2022/01/06 13:17:10;;;;;;;10.38;3.70;;;;;;;;;;6246145;28;20413;-88
2022/01/06 13:20:15;;;;;;;8.77;4.10;;;;;;;;;;6251640;28;20381;-88
2022/01/06 13:26:43;;;;;;;5.03;3.00;;;;;;;;;;6263027;28;20065;-88
2022/01/06 13:29:53;;;;;;;6.60;2.70;;;;;;;;;;6248228;28;20032;-88
2022/01/06 13:32:57;;;;;;;6.60;3.30;;;;;;;;;;6248445;28;20028;-88
2022/01/06 13:36:01;;;;;;;6.40;2.92;;;;;;;;;;6247976;28;20029;-88
2022/01/06 13:39:06;;;;;;;10.00;4.45;;;;;;;;;;6256388;28;20053;-88
2022/01/06 13:42:07;;;;;;;4.78;2.15;;;;;;;;;;6248960;28;20022;-88
2022/01/06 13:45:23;;;;;;;18.90;9.40;;;;;;;;;;6256710;28;20017;-88
2022/01/06 13:51:28;;;;;;;17.95;3.67;;;;;;;;;;6256888;28;20033;-89
2022/01/06 13:54:29;;;;;;;9.95;4.93;;;;;;;;;;6257750;28;20033;-88
2022/01/06 13:57:29;;;;;;;8.80;3.53;;;;;;;;;;6255125;28;20407;-88
2022/01/06 14:00:30;;;;;;;7.95;3.70;;;;;;;;;;6266891;28;20040;-88
2022/01/06 14:03:33;;;;;;;15.75;5.55;;;;;;;;;;6259500;28;20033;-89
2022/01/06 14:06:34;;;;;;;11.48;5.35;;;;;;;;;;6255088;28;20021;-88
2022/01/06 14:09:34;;;;;;;15.23;6.72;;;;;;;;;;6249504;28;20013;-88
2022/01/06 14:12:34;;;;;;;17.35;7.07;;;;;;;;;;6269413;28;20031;-88
2022/01/06 14:15:35;;;;;;;32.88;10.65;;;;;;;;;;6258119;28;20036;-88
2022/01/06 14:18:36;;;;;;;21.67;9.05;;;;;;;;;;6258170;28;20028;-88
2022/01/06 14:21:36;;;;;;;24.88;8.63;;;;;;;;;;6247481;28;20032;-88
2022/01/06 14:24:36;;;;;;;18.48;7.85;;;;;;;;;;6249088;28;20021;-88
2022/01/06 14:27:37;;;;;;;19.85;8.57;;;;;;;;;;6253886;28;20059;-89
2022/01/06 14:30:37;;;;;;;23.83;8.63;;;;;;;;;;6246125;28;20072;-88
2022/01/06 14:33:38;;;;;;;32.53;14.65;;;;;;;;;;6255102;28;20024;-88
2022/01/06 14:36:39;;;;;;;32.90;12.20;;;;;;;;;;6251066;28;20033;-88
2022/01/06 14:39:39;;;;;;;26.10;10.48;;;;;;;;;;6261232;28;20060;-88
2022/01/06 14:42:39;;;;;;;33.25;13.18;;;;;;;;;;6249536;28;20033;-89
2022/01/06 14:45:39;;;;;;;38.70;19.40;;;;;;;;;;6244404;28;20052;-89
2022/01/06 14:48:40;;;;;;;16.48;5.50;;;;;;;;;;6243382;28;20029;-89
2022/01/06 14:51:40;;;;;;;34.03;12.50;;;;;;;;;;6242804;28;20442;-89
2022/01/06 14:54:40;;;;;;;30.77;13.07;;;;;;;;;;6244003;28;20021;-88
2022/01/06 14:57:41;;;;;;;38.97;18.65;;;;;;;;;;6261324;28;20036;-88
2022/01/06 15:00:41;;;;;;;48.28;22.08;;;;;;;;;;6259839;28;20440;-89
2022/01/06 15:03:42;;;;;;;26.15;10.13;;;;;;;;;;6245092;28;20025;-89
2022/01/06 15:06:42;;;;;;;19.23;8.25;;;;;;;;;;6251146;28;20500;-89
2022/01/06 15:09:42;;;;;;;12.70;5.75;;;;;;;;;;6259498;28;20483;-88
2022/01/06 15:12:43;;;;;;;23.35;10.18;;;;;;;;;;6246221;28;20026;-89
2022/01/06 15:15:43;;;;;;;37.92;14.48;;;;;;;;;;6246943;28;20032;-89
2022/01/06 15:18:43;;;;;;;22.95;9.20;;;;;;;;;;6251758;28;20111;-89
2022/01/06 15:21:44;;;;;;;25.40;12.05;;;;;;;;;;6253145;28;20029;-89
2022/01/06 15:24:44;;;;;;;47.78;18.95;;;;;;;;;;6247232;28;20028;-89
2022/01/06 15:27:45;;;;;;;17.33;7.40;;;;;;;;;;6245300;28;20018;-89
2022/01/06 15:30:45;;;;;;;33.67;14.52;;;;;;;;;;6265721;28;20175;-88
2022/01/06 15:33:45;;;;;;;20.50;9.15;;;;;;;;;;6266071;28;20032;-89
2022/01/06 15:36:53;;;;;;;16.15;8.73;;;;;;;;;;6243894;28;20035;-89
2022/01/06 15:39:53;;;;;;;15.52;6.55;;;;;;;;;;6244083;28;20136;-89
2022/01/06 15:42:54;;;;;;;21.95;8.30;;;;;;;;;;6254821;28;20240;-89
2022/01/06 15:45:55;;;;;;;25.42;10.13;;;;;;;;;;6247985;28;20389;-89
2022/01/06 15:48:56;;;;;;;26.77;9.05;;;;;;;;;;6244710;28;20136;-88
2022/01/06 15:51:56;;;;;;;21.27;7.53;;;;;;;;;;6244922;28;20508;-89
2022/01/06 15:54:56;;;;;;;20.40;9.38;;;;;;;;;;6247259;28;20264;-89
2022/01/06 15:57:57;;;;;;;22.75;11.18;;;;;;;;;;6252885;28;20025;-89
2022/01/06 16:07:18;;;;;;;27.30;11.45;;;;;;;;;;6258634;28;20041;-89
2022/01/06 16:10:18;;;;;;;22.98;12.05;;;;;;;;;;6263568;28;20024;-90
2022/01/06 16:13:18;;;;;;;18.83;8.55;;;;;;;;;;6250174;28;20049;-89
2022/01/06 16:16:19;;;;;;;18.17;8.18;;;;;;;;;;6258952;28;20017;-88
2022/01/06 16:19:19;;;;;;;22.70;8.65;;;;;;;;;;6259496;28;20036;-88
2022/01/06 16:22:20;;;;;;;18.38;9.68;;;;;;;;;;6250356;28;20029;-89
2022/01/06 16:25:23;;;;;;;25.30;11.30;;;;;;;;;;6260560;28;20032;-89
2022/01/06 16:28:23;;;;;;;34.50;14.60;;;;;;;;;;6275070;28;20495;-89
2022/01/06 16:31:32;;;;;;;56.83;19.10;;;;;;;;;;6255032;28;20017;-89
2022/01/06 16:34:32;;;;;;;23.60;8.65;;;;;;;;;;6248235;28;20473;-89
2022/01/06 16:37:33;;;;;;;25.00;8.45;;;;;;;;;;6255047;28;20048;-89
2022/01/06 16:40:34;;;;;;;21.00;8.47;;;;;;;;;;6264909;28;20028;-88
2022/01/06 16:43:34;;;;;;;17.70;7.18;;;;;;;;;;6255298;28;20102;-88
2022/01/06 16:46:35;;;;;;;27.42;11.10;;;;;;;;;;6247721;28;20231;-87
2022/01/06 16:49:35;;;;;;;26.80;11.88;;;;;;;;;;6249500;28;20030;-88
2022/01/06 16:52:37;;;;;;;45.53;18.35;;;;;;;;;;6270876;28;20101;-87
2022/01/06 16:55:40;;;;;;;50.97;21.98;;;;;;;;;;6265395;28;20231;-88
2022/01/06 16:58:40;;;;;;;19.45;8.85;;;;;;;;;;6258954;28;20029;-88
2022/01/06 17:01:40;;;;;;;23.02;10.57;;;;;;;;;;6256485;28;20025;-88
2022/01/06 17:04:41;;;;;;;23.08;10.57;;;;;;;;;;6247758;28;20116;-88
2022/01/06 17:07:41;;;;;;;30.17;12.50;;;;;;;;;;6253061;28;20021;-88
2022/01/06 17:10:42;;;;;;;25.17;10.85;;;;;;;;;;6264515;28;20109;-88
2022/01/06 17:13:42;;;;;;;30.67;7.60;;;;;;;;;;6257737;28;20033;-88
2022/01/06 17:16:42;;;;;;;15.02;6.95;;;;;;;;;;6266393;28;20074;-88
2022/01/06 17:19:44;;;;;;;17.73;7.47;;;;;;;;;;6264144;28;20021;-88
2022/01/06 17:22:44;;;;;;;30.80;12.60;;;;;;;;;;6269802;28;20031;-88
2022/01/06 17:25:45;;;;;;;25.02;8.82;;;;;;;;;;6263324;28;20021;-88
2022/01/06 17:28:46;;;;;;;19.33;7.65;;;;;;;;;;6247882;28;20028;-88
2022/01/06 17:31:46;;;;;;;11.25;5.97;;;;;;;;;;6269476;28;20021;-88
2022/01/06 17:34:46;;;;;;;32.53;13.25;;;;;;;;;;6271327;28;20025;-88
2022/01/06 17:37:47;;;;;;;27.83;11.63;;;;;;;;;;6261346;28;20533;-86
2022/01/06 17:40:47;;;;;;;17.25;10.63;;;;;;;;;;6262038;28;20028;-88
2022/01/06 17:43:48;;;;;;;29.55;16.52;;;;;;;;;;6250163;28;20091;-87
2022/01/06 17:46:48;;;;;;;23.02;12.50;;;;;;;;;;6244384;28;20100;-87
2022/01/06 17:49:49;;;;;;;26.55;13.13;;;;;;;;;;6243923;28;20017;-87
2022/01/06 17:52:49;;;;;;;35.78;18.20;;;;;;;;;;6243519;28;20053;-87
2022/01/06 17:55:50;;;;;;;36.25;14.10;;;;;;;;;;6266423;28;20575;-87
2022/01/06 17:58:50;;;;;;;17.52;8.32;;;;;;;;;;6258979;28;20029;-86
2022/01/06 18:01:51;;;;;;;21.40;8.00;;;;;;;;;;6251722;28;20041;-87
2022/01/06 18:04:51;;;;;;;28.05;12.57;;;;;;;;;;6253159;28;20024;-87
2022/01/06 18:14:19;;;;;;;31.55;12.45;;;;;;;;;;6251026;28;20120;-86
2022/01/06 18:17:20;;;;;;;26.65;12.57;;;;;;;;;;6246703;28;20111;-86